createdAt,value
2023-05-13T00:02:09.181Z,9.75
2023-05-13T00:07:11.716Z,11.82
2023-05-13T00:12:14.838Z,9.88
2023-05-13T00:17:17.451Z,10.32
2023-05-13T00:22:20.274Z,8.93
2023-05-13T00:27:22.837Z,15.13
2023-05-13T00:32:25.532Z,10.23
2023-05-13T00:37:28.025Z,12.13
2023-05-13T00:42:30.590Z,13.43
2023-05-13T00:47:34.230Z,14.63
2023-05-13T00:52:39.627Z,14.32
2023-05-13T00:57:43.716Z,11.85
2023-05-13T01:03:05.763Z,13.60
2023-05-13T01:08:21.102Z,13.45
2023-05-13T01:13:27.277Z,11.85
2023-05-13T01:18:38.235Z,15.02
2023-05-13T01:23:41.818Z,14.15
2023-05-13T01:28:45.195Z,12.40
2023-05-13T01:33:50.092Z,13.63
2023-05-13T01:38:52.904Z,14.50
2023-05-13T01:43:57.990Z,17.50
2023-05-13T01:49:01.295Z,13.93
2023-05-13T01:54:05.176Z,10.88
2023-05-13T01:59:11.955Z,13.90
2023-05-13T02:04:14.984Z,11.43
2023-05-13T02:09:18.373Z,14.07
2023-05-13T02:14:22.837Z,15.60
2023-05-13T02:19:25.882Z,12.75
2023-05-13T02:24:31.779Z,15.00
2023-05-13T02:29:35.201Z,17.30
2023-05-13T02:34:37.914Z,12.85
2023-05-13T02:39:41.143Z,14.43
2023-05-13T02:44:44.226Z,12.15
2023-05-13T02:49:50.063Z,14.73
2023-05-13T02:54:52.599Z,13.20
2023-05-13T02:59:57.361Z,13.50
2023-05-13T03:05:01.798Z,14.35
2023-05-13T03:10:07.354Z,12.95
2023-05-13T03:15:11.420Z,11.88
2023-05-13T03:20:14.170Z,14.57
2023-05-13T03:25:17.203Z,12.65
2023-05-13T03:30:24.564Z,11.57
2023-05-13T03:35:36.120Z,13.43
2023-05-13T03:40:40.621Z,14.95
2023-05-13T03:45:47.838Z,12.70
2023-05-13T03:50:54.008Z,12.23
2023-05-13T03:55:59.231Z,47.55
2023-05-13T04:01:03.857Z,53.53
2023-05-13T04:06:06.704Z,74.45
2023-05-13T04:11:10.876Z,15.65
2023-05-13T04:21:17.013Z,10.23
2023-05-13T04:26:22.434Z,11.38
2023-05-13T04:31:25.431Z,12.82
2023-05-13T04:36:28.537Z,9.88
2023-05-13T04:46:41.178Z,6.75
2023-05-13T04:51:46.698Z,9.43
2023-05-13T04:56:50.273Z,5.93
2023-05-13T05:01:52.762Z,11.60
2023-05-13T05:06:56.518Z,5.22
2023-05-13T05:12:00.687Z,7.65
2023-05-13T05:17:07.422Z,6.25
2023-05-13T05:22:11.552Z,7.15
2023-05-13T05:32:16.693Z,6.38
2023-05-13T05:37:19.866Z,16.33
2023-05-13T05:42:25.514Z,8.75
2023-05-13T05:47:29.224Z,5.47
2023-05-13T05:52:32.084Z,6.05
2023-05-13T05:57:34.884Z,8.82
2023-05-13T06:02:37.413Z,6.32
2023-05-13T06:07:40.595Z,7.35
2023-05-13T06:12:43.123Z,8.35
2023-05-13T06:17:45.930Z,8.05
2023-05-13T06:22:49.213Z,6.45
2023-05-13T06:27:51.980Z,5.47
2023-05-13T06:33:02.007Z,5.90
2023-05-13T06:38:06.807Z,3.55
2023-05-13T06:43:12.821Z,7.00
2023-05-13T06:48:21.266Z,5.97
2023-05-13T06:53:23.835Z,7.05
2023-05-13T06:58:26.863Z,8.13
2023-05-13T07:03:29.702Z,4.38
2023-05-13T07:08:32.677Z,5.40
2023-05-13T07:13:36.729Z,5.07
2023-05-13T07:18:39.647Z,4.95
2023-05-13T07:23:43.741Z,4.93
2023-05-13T07:28:47.515Z,5.78
2023-05-13T07:33:49.884Z,3.95
2023-05-13T07:38:53.734Z,6.22
2023-05-13T07:43:57.336Z,2.45
2023-05-13T07:49:01.010Z,2.20
2023-05-13T07:54:04.004Z,3.78
2023-05-13T07:59:06.712Z,2.85
2023-05-13T08:04:10.882Z,6.07
2023-05-13T08:09:14.408Z,3.53
2023-05-13T08:14:17.279Z,4.28
2023-05-13T08:19:20.240Z,4.65
2023-05-13T08:24:22.914Z,4.15
2023-05-13T08:29:25.670Z,5.53
2023-05-13T08:34:28.723Z,4.18
2023-05-13T08:39:32.293Z,4.75
2023-05-13T08:44:39.797Z,5.10
2023-05-13T08:49:44.393Z,3.40
2023-05-13T08:54:47.976Z,3.55
2023-05-13T08:59:50.866Z,4.28
2023-05-13T09:04:56.195Z,6.75
2023-05-13T09:09:59.454Z,4.97
2023-05-13T09:15:01.744Z,12.20
2023-05-13T09:20:11.424Z,5.32
2023-05-13T09:25:16.572Z,5.90
2023-05-13T09:30:21.592Z,4.95
2023-05-13T09:35:24.358Z,1.95
2023-05-13T09:40:27.381Z,4.43
2023-05-13T09:45:31.115Z,6.22
2023-05-13T09:50:36.054Z,4.32
2023-05-13T10:00:42.392Z,5.05
2023-05-13T10:05:46.785Z,4.45
2023-05-13T10:10:54.629Z,5.05
2023-05-13T10:15:57.644Z,7.40
2023-05-13T10:21:00.680Z,5.25
2023-05-13T10:26:04.149Z,2.90
2023-05-13T10:31:07.177Z,2.13
2023-05-13T10:36:27.742Z,3.70
2023-05-13T10:42:09.615Z,3.88
2023-05-13T10:47:14.031Z,2.42
2023-05-13T10:52:16.441Z,2.15
2023-05-13T10:57:28.810Z,2.55
2023-05-13T11:02:32.645Z,3.97
2023-05-13T11:07:39.897Z,4.55
2023-05-13T11:12:43.554Z,3.00
2023-05-13T11:17:46.873Z,2.45
2023-05-13T11:22:52.118Z,3.80
2023-05-13T11:27:56.523Z,2.42
2023-05-13T11:33:02.927Z,4.35
2023-05-13T11:38:06.599Z,5.00
2023-05-13T11:43:10.087Z,3.38
2023-05-13T11:48:23.893Z,1.95
2023-05-13T11:53:26.179Z,3.95
2023-05-13T11:58:29.036Z,4.85
2023-05-13T12:03:31.903Z,2.47
2023-05-13T12:08:34.309Z,3.20
2023-05-13T12:13:37.469Z,1.88
2023-05-13T12:18:39.865Z,4.93
2023-05-13T12:23:43.278Z,3.95
2023-05-13T12:28:46.214Z,2.70
2023-05-13T12:33:49.837Z,6.53
2023-05-13T12:39:05.578Z,2.65
2023-05-13T12:44:14.505Z,3.60
2023-05-13T12:49:17.337Z,3.67
2023-05-13T12:54:20.374Z,3.35
2023-05-13T12:59:22.685Z,3.95
2023-05-13T13:04:25.459Z,4.43
2023-05-13T13:09:27.753Z,3.13
2023-05-13T13:14:31.924Z,2.80
2023-05-13T13:19:35.624Z,4.63
2023-05-13T13:24:37.928Z,3.42
2023-05-13T13:29:41.375Z,3.53
2023-05-13T13:34:43.697Z,2.15
2023-05-13T13:39:47.262Z,5.68
2023-05-13T13:44:49.789Z,3.55
2023-05-13T13:49:52.487Z,2.70
2023-05-13T13:54:55.816Z,2.95
2023-05-13T13:59:58.099Z,4.50
2023-05-13T14:05:01.692Z,3.20
2023-05-13T14:10:07.089Z,5.25
2023-05-13T14:15:10.934Z,4.85
2023-05-13T14:20:13.261Z,4.15
2023-05-13T14:25:16.362Z,3.72
2023-05-13T14:30:18.721Z,4.35
2023-05-13T14:35:22.232Z,6.63
2023-05-13T14:40:24.735Z,5.32
2023-05-13T14:45:28.497Z,3.17
2023-05-13T14:50:33.552Z,4.40
2023-05-13T14:55:35.904Z,5.40
2023-05-13T15:00:39.282Z,2.50
2023-05-13T15:05:44.121Z,5.60
2023-05-13T15:10:46.690Z,6.95
2023-05-13T15:15:49.576Z,6.05
2023-05-13T15:20:52.790Z,5.47
2023-05-13T15:25:55.725Z,6.05
2023-05-13T15:30:59.255Z,7.40
2023-05-13T15:36:02.287Z,5.05
2023-05-13T15:41:05.004Z,7.47
2023-05-13T15:46:08.119Z,14.18
2023-05-13T15:51:12.497Z,13.60
2023-05-13T15:56:15.514Z,17.70
2023-05-13T16:01:18.957Z,26.38
2023-05-13T16:06:22.696Z,32.97
2023-05-13T16:11:25.943Z,24.33
2023-05-13T16:16:28.390Z,51.08
2023-05-13T16:21:31.981Z,36.80
2023-05-13T16:26:38.364Z,62.90
2023-05-13T16:32:01.749Z,64.35
2023-05-13T16:37:04.308Z,89.60
2023-05-13T16:42:07.005Z,84.88
2023-05-13T16:47:09.398Z,84.45
2023-05-13T16:52:12.999Z,62.17
2023-05-13T16:57:16.463Z,47.17
2023-05-13T17:02:18.848Z,34.92
2023-05-13T17:07:23.132Z,33.45
2023-05-13T17:12:27.507Z,31.38
2023-05-13T17:17:30.423Z,27.23
2023-05-13T17:22:33.353Z,35.25
2023-05-13T17:27:35.750Z,27.35
2023-05-13T17:32:38.115Z,34.30
2023-05-13T17:37:40.734Z,49.13
2023-05-13T17:42:42.992Z,52.03
2023-05-13T17:47:45.982Z,44.75
2023-05-13T17:52:49.293Z,46.13
2023-05-13T17:57:52.727Z,38.35
2023-05-13T18:02:55.896Z,36.15
2023-05-13T18:07:58.874Z,29.23
2023-05-13T18:13:02.517Z,41.88
2023-05-13T18:18:06.121Z,41.83
2023-05-13T18:23:09.310Z,41.78
2023-05-13T18:28:12.641Z,48.78
2023-05-13T18:33:15.197Z,42.83
2023-05-13T18:38:17.713Z,39.75
2023-05-13T18:43:20.050Z,37.85
2023-05-13T18:48:25.257Z,41.92
2023-05-13T18:58:29.878Z,40.58
2023-05-13T19:03:32.497Z,36.78
2023-05-13T19:08:34.933Z,40.85
2023-05-13T19:13:46.638Z,42.83
2023-05-13T19:18:49.637Z,43.05
2023-05-13T19:23:52.552Z,50.40
2023-05-13T19:28:55.240Z,49.42
2023-05-13T19:33:57.642Z,49.70
2023-05-13T19:38:59.980Z,46.20
2023-05-13T19:44:03.272Z,56.97
2023-05-13T19:49:06.148Z,62.28
2023-05-13T19:54:11.579Z,41.92
2023-05-13T19:59:16.341Z,45.13
2023-05-13T20:04:18.948Z,40.88
2023-05-13T20:09:22.351Z,39.47
2023-05-13T20:14:27.752Z,50.22
2023-05-13T20:19:30.859Z,35.88
2023-05-13T20:24:34.145Z,45.80
2023-05-13T20:29:39.562Z,32.13
2023-05-13T20:34:43.043Z,37.05
2023-05-13T20:39:46.686Z,34.92
2023-05-13T20:44:49.539Z,32.50
2023-05-13T20:49:52.421Z,38.25
2023-05-13T20:54:54.766Z,28.48
2023-05-13T20:59:57.093Z,45.40
2023-05-13T21:05:00.000Z,26.42
2023-05-13T21:10:03.002Z,17.30
2023-05-13T21:15:07.917Z,12.63
2023-05-13T21:20:11.672Z,22.05
2023-05-13T21:25:16.067Z,20.30
2023-05-13T21:30:18.986Z,21.60
2023-05-13T21:35:22.334Z,22.80
2023-05-13T21:40:25.276Z,17.48
2023-05-13T21:45:28.751Z,19.90
2023-05-13T21:50:32.946Z,18.17
2023-05-13T21:55:35.836Z,13.40
2023-05-13T22:00:38.662Z,14.13
2023-05-13T22:05:44.841Z,18.27
2023-05-13T22:10:47.972Z,16.35
2023-05-13T22:15:51.148Z,15.45
2023-05-13T22:20:54.595Z,16.08
2023-05-13T22:25:57.030Z,17.52
2023-05-13T22:30:59.784Z,13.65
2023-05-13T22:36:03.431Z,16.40
2023-05-13T22:41:07.223Z,10.80
2023-05-13T22:46:10.085Z,12.82
2023-05-13T22:51:13.248Z,9.77
2023-05-13T22:56:15.858Z,12.15
2023-05-13T23:01:18.523Z,10.30
2023-05-13T23:06:20.850Z,15.23
2023-05-13T23:11:23.188Z,10.25
2023-05-13T23:16:25.643Z,14.25
2023-05-13T23:21:28.496Z,12.00
2023-05-13T23:26:31.823Z,14.30
2023-05-13T23:31:34.348Z,13.95
2023-05-13T23:36:36.813Z,15.40
2023-05-13T23:41:40.307Z,10.75
2023-05-13T23:46:42.983Z,14.57
2023-05-13T23:51:46.074Z,11.35
2023-05-13T23:56:49.677Z,10.55
